Gary Chicago International Airport
KGYY : now visible

Airfield :











YOU CAN JOIN US ON...

 
LOGIN :

Register | Disclaimer

   EN    FR    IT 

 









Legend :    VFR   Marginal VFR   IFR   Intensive IFR   Very Intensive IFR
Visi :
Ceiling :
>= 8 km
>= 3000ft
5 to 8 km
1000 to 3000 ft
1500m to 5 km
500 to 1000 ft
800 to 1500m
200 to 500 ft
< 800m
< 200 ft
Symbols :   Thunderstorms  Fog  Heavy snow  Heavy precipitations  Wind > 20 kt







- Airport Elevation : 591 ft
- IATA code : GYY


KGYY - Gary Chicago International

CURRENT METAR :
  • 210855Z AUTO 35003KT 7SM SCT006 23/23 A2991 RMK AO2 LTG DSNT NW T02280227

EXPIRED METARs :
  • 210835Z AUTO 34005KT 7SM BKN006 BKN037 23/23 A2991 RMK AO2 LTG DSNT N AND NW T02280226
  • 210815Z AUTO 35006KT 10SM SCT006 SCT037 23/22 A2991 RMK AO2 LTG DSNT NW T02260224
  • 210755Z AUTO 35005KT 10SM CLR 23/22 A2991 RMK AO2 T02250223
  • 210735Z AUTO 35006KT 10SM CLR 23/22 A2991 RMK AO2 LTG DSNT NW T02250221
  • 210715Z AUTO 33006KT 10SM SCT038 SCT046 23/22 A2991 RMK AO2 T02260219
  • 210655Z AUTO 33005KT 10SM SCT040 SCT048 SCT060 24/23 A2991 RMK AO2 T02370225
  • 210635Z AUTO 36004KT 10SM SCT045 BKN060 25/23 A2990 RMK AO2 T02470228
  • 210615Z AUTO 33006KT 10SM CLR 24/24 A2990 RMK AO2 T02380235

TAF KGYY
Valid from the 21 at 09:00 until the 22 at 06:00 UTC


210858Z 2109/2206 25008KT P6SM BKN006 OVC035
TEMPO 2110/2112 3SM TSRA BR SCT015 OVC035CB
FM211200 03009KT 6SM -SHRA BR SCT007 OVC020
TEMPO 2112/2116 BKN007
FM211700 03013KT P6SM SCT025 BKN100
FM212300 01015G25KT P6SM BKN070
KZAU FIR / North America



MET'MAP, your aeronautical weather chart ! - Copyright ORBIFLY December 2007 - Disclaimer

ORBIFLY MET'MAP TEAM :

Programming & Development : Alexandra Zaïnal
Concept & Development : Baudouin d'Aumeries
Co-Development & Prog : Marc-Olivier Méhu
Technical & hardware support : Manuel Goepfert

Contact : metmap@orbifly.com




SOURCES & CREDITS :

   NOAA       Earth
Advisory